sensor_id;sensor_type;location;lat;lon;timestamp;P1;durP1;ratioP1;P2;durP2;ratioP2
55224;SDS011;41091;49.400;8.684;2022-11-25T00:01:02;11.98;;;3.75;;
55224;SDS011;41091;49.400;8.684;2022-11-25T00:03:34;3.30;;;2.28;;
55224;SDS011;41091;49.400;8.684;2022-11-25T00:06:13;7.95;;;2.25;;
55224;SDS011;41091;49.400;8.684;2022-11-25T00:08:42;2.90;;;2.45;;
55224;SDS011;41091;49.400;8.684;2022-11-25T00:11:09;3.85;;;2.05;;
55224;SDS011;41091;49.400;8.684;2022-11-25T00:13:40;12.45;;;2.42;;
55224;SDS011;41091;49.400;8.684;2022-11-25T00:16:07;7.13;;;1.73;;
55224;SDS011;41091;49.400;8.684;2022-11-25T00:18:35;5.22;;;2.65;;
55224;SDS011;41091;49.400;8.684;2022-11-25T00:21:18;10.10;;;2.10;;
55224;SDS011;41091;49.400;8.684;2022-11-25T00:23:53;6.45;;;2.08;;
55224;SDS011;41091;49.400;8.684;2022-11-25T00:26:19;7.22;;;2.83;;
55224;SDS011;41091;49.400;8.684;2022-11-25T00:28:48;8.55;;;2.42;;
55224;SDS011;41091;49.400;8.684;2022-11-25T00:31:17;4.32;;;2.05;;
55224;SDS011;41091;49.400;8.684;2022-11-25T00:33:49;6.60;;;2.70;;
55224;SDS011;41091;49.400;8.684;2022-11-25T00:38:55;4.63;;;2.30;;
55224;SDS011;41091;49.400;8.684;2022-11-25T00:41:21;3.35;;;2.10;;
55224;SDS011;41091;49.400;8.684;2022-11-25T00:44:07;7.35;;;2.55;;
55224;SDS011;41091;49.400;8.684;2022-11-25T00:46:57;9.48;;;2.10;;
55224;SDS011;41091;49.400;8.684;2022-11-25T00:49:25;6.63;;;1.98;;
55224;SDS011;41091;49.400;8.684;2022-11-25T00:51:51;5.28;;;2.00;;
55224;SDS011;41091;49.400;8.684;2022-11-25T00:54:19;11.32;;;2.55;;
55224;SDS011;41091;49.400;8.684;2022-11-25T00:56:44;8.05;;;2.38;;
55224;SDS011;41091;49.400;8.684;2022-11-25T00:59:09;7.75;;;1.95;;
55224;SDS011;41091;49.400;8.684;2022-11-25T01:01:35;5.50;;;1.92;;
55224;SDS011;41091;49.400;8.684;2022-11-25T01:04:00;4.68;;;2.38;;
55224;SDS011;41091;49.400;8.684;2022-11-25T01:06:26;4.68;;;2.40;;
55224;SDS011;41091;49.400;8.684;2022-11-25T01:08:56;7.00;;;1.73;;
55224;SDS011;41091;49.400;8.684;2022-11-25T01:11:24;3.22;;;2.15;;
55224;SDS011;41091;49.400;8.684;2022-11-25T01:13:52;3.75;;;2.67;;
55224;SDS011;41091;49.400;8.684;2022-11-25T01:16:21;4.85;;;1.90;;
55224;SDS011;41091;49.400;8.684;2022-11-25T01:18:47;8.25;;;1.88;;
55224;SDS011;41091;49.400;8.684;2022-11-25T01:21:13;3.90;;;2.20;;
55224;SDS011;41091;49.400;8.684;2022-11-25T01:23:42;3.33;;;1.88;;
55224;SDS011;41091;49.400;8.684;2022-11-25T01:26:12;8.27;;;1.92;;
55224;SDS011;41091;49.400;8.684;2022-11-25T01:28:39;5.50;;;2.25;;
55224;SDS011;41091;49.400;8.684;2022-11-25T01:31:15;6.03;;;2.33;;
55224;SDS011;41091;49.400;8.684;2022-11-25T01:33:42;4.07;;;2.42;;
55224;SDS011;41091;49.400;8.684;2022-11-25T01:36:11;5.65;;;1.65;;
55224;SDS011;41091;49.400;8.684;2022-11-25T01:38:44;4.63;;;1.45;;
55224;SDS011;41091;49.400;8.684;2022-11-25T01:41:14;8.07;;;1.92;;
55224;SDS011;41091;49.400;8.684;2022-11-25T01:43:42;4.88;;;2.42;;
55224;SDS011;41091;49.400;8.684;2022-11-25T01:49:00;5.82;;;2.20;;
55224;SDS011;41091;49.400;8.684;2022-11-25T01:53:58;7.97;;;1.80;;
55224;SDS011;41091;49.400;8.684;2022-11-25T01:56:26;6.07;;;1.85;;
55224;SDS011;41091;49.400;8.684;2022-11-25T01:58:55;5.95;;;2.30;;
55224;SDS011;41091;49.400;8.684;2022-11-25T02:01:20;3.28;;;2.03;;
55224;SDS011;41091;49.400;8.684;2022-11-25T02:03:46;7.35;;;2.58;;
55224;SDS011;41091;49.400;8.684;2022-11-25T02:06:21;12.20;;;2.28;;
55224;SDS011;41091;49.400;8.684;2022-11-25T02:08:49;6.90;;;1.88;;
55224;SDS011;41091;49.400;8.684;2022-11-25T02:11:20;4.27;;;1.50;;
55224;SDS011;41091;49.400;8.684;2022-11-25T02:13:48;18.00;;;2.92;;
55224;SDS011;41091;49.400;8.684;2022-11-25T02:16:16;2.22;;;1.73;;
55224;SDS011;41091;49.400;8.684;2022-11-25T02:18:42;7.57;;;2.28;;
55224;SDS011;41091;49.400;8.684;2022-11-25T02:21:07;5.45;;;1.65;;
55224;SDS011;41091;49.400;8.684;2022-11-25T02:26:11;4.85;;;1.73;;
55224;SDS011;41091;49.400;8.684;2022-11-25T02:28:36;4.45;;;2.03;;
55224;SDS011;41091;49.400;8.684;2022-11-25T02:31:03;6.78;;;2.53;;
55224;SDS011;41091;49.400;8.684;2022-11-25T02:33:32;7.32;;;2.45;;
55224;SDS011;41091;49.400;8.684;2022-11-25T02:36:33;5.50;;;2.70;;
55224;SDS011;41091;49.400;8.684;2022-11-25T02:38:52;6.95;;;2.42;;
55224;SDS011;41091;49.400;8.684;2022-11-25T02:41:32;6.40;;;2.28;;
55224;SDS011;41091;49.400;8.684;2022-11-25T02:43:58;8.83;;;2.70;;
55224;SDS011;41091;49.400;8.684;2022-11-25T02:46:25;5.88;;;2.50;;
55224;SDS011;41091;49.400;8.684;2022-11-25T02:48:52;7.03;;;2.63;;
55224;SDS011;41091;49.400;8.684;2022-11-25T02:51:19;7.30;;;2.33;;
55224;SDS011;41091;49.400;8.684;2022-11-25T02:53:47;11.65;;;2.35;;
55224;SDS011;41091;49.400;8.684;2022-11-25T02:56:17;7.82;;;1.88;;
55224;SDS011;41091;49.400;8.684;2022-11-25T02:58:48;3.50;;;2.03;;
55224;SDS011;41091;49.400;8.684;2022-11-25T03:01:13;6.65;;;2.60;;
55224;SDS011;41091;49.400;8.684;2022-11-25T03:03:39;8.88;;;2.72;;
55224;SDS011;41091;49.400;8.684;2022-11-25T03:06:04;6.05;;;2.60;;
55224;SDS011;41091;49.400;8.684;2022-11-25T03:08:29;7.70;;;2.67;;
55224;SDS011;41091;49.400;8.684;2022-11-25T03:10:55;14.20;;;3.80;;
55224;SDS011;41091;49.400;8.684;2022-11-25T03:13:20;5.80;;;2.53;;
55224;SDS011;41091;49.400;8.684;2022-11-25T03:15:46;8.82;;;2.65;;
55224;SDS011;41091;49.400;8.684;2022-11-25T03:18:13;6.68;;;2.45;;
55224;SDS011;41091;49.400;8.684;2022-11-25T03:20:38;7.95;;;2.35;;
55224;SDS011;41091;49.400;8.684;2022-11-25T03:23:06;4.20;;;2.45;;
55224;SDS011;41091;49.400;8.684;2022-11-25T03:25:32;4.50;;;2.10;;
55224;SDS011;41091;49.400;8.684;2022-11-25T03:27:58;7.30;;;2.50;;
55224;SDS011;41091;49.400;8.684;2022-11-25T03:30:25;4.95;;;2.10;;
55224;SDS011;41091;49.400;8.684;2022-11-25T03:32:53;3.58;;;2.00;;
55224;SDS011;41091;49.400;8.684;2022-11-25T03:35:19;13.68;;;3.53;;
55224;SDS011;41091;49.400;8.684;2022-11-25T03:37:46;13.57;;;2.90;;
55224;SDS011;41091;49.400;8.684;2022-11-25T03:40:13;7.68;;;2.47;;
55224;SDS011;41091;49.400;8.684;2022-11-25T03:42:39;8.85;;;2.15;;
55224;SDS011;41091;49.400;8.684;2022-11-25T03:45:05;3.67;;;2.28;;
55224;SDS011;41091;49.400;8.684;2022-11-25T03:47:33;9.43;;;2.38;;
55224;SDS011;41091;49.400;8.684;2022-11-25T03:49:59;9.52;;;2.70;;
55224;SDS011;41091;49.400;8.684;2022-11-25T03:52:24;4.63;;;1.95;;
55224;SDS011;41091;49.400;8.684;2022-11-25T03:54:49;3.65;;;2.08;;
55224;SDS011;41091;49.400;8.684;2022-11-25T03:57:18;11.73;;;3.40;;
55224;SDS011;41091;49.400;8.684;2022-11-25T03:59:43;3.40;;;2.40;;
55224;SDS011;41091;49.400;8.684;2022-11-25T04:02:11;5.50;;;2.35;;
55224;SDS011;41091;49.400;8.684;2022-11-25T04:04:36;9.23;;;2.00;;
55224;SDS011;41091;49.400;8.684;2022-11-25T04:07:02;4.75;;;2.22;;
55224;SDS011;41091;49.400;8.684;2022-11-25T04:09:29;5.68;;;2.35;;
55224;SDS011;41091;49.400;8.684;2022-11-25T04:11:54;6.20;;;2.65;;
55224;SDS011;41091;49.400;8.684;2022-11-25T04:14:38;7.68;;;2.15;;
55224;SDS011;41091;49.400;8.684;2022-11-25T04:17:04;4.68;;;2.05;;
55224;SDS011;41091;49.400;8.684;2022-11-25T04:19:29;7.60;;;2.30;;
55224;SDS011;41091;49.400;8.684;2022-11-25T04:21:54;3.65;;;1.80;;
55224;SDS011;41091;49.400;8.684;2022-11-25T04:24:23;9.50;;;2.28;;
55224;SDS011;41091;49.400;8.684;2022-11-25T04:26:49;8.38;;;1.90;;
55224;SDS011;41091;49.400;8.684;2022-11-25T04:29:14;14.60;;;2.78;;
55224;SDS011;41091;49.400;8.684;2022-11-25T04:31:39;5.22;;;2.58;;
55224;SDS011;41091;49.400;8.684;2022-11-25T04:34:05;5.30;;;2.65;;
55224;SDS011;41091;49.400;8.684;2022-11-25T04:36:30;5.68;;;3.05;;
55224;SDS011;41091;49.400;8.684;2022-11-25T04:38:55;5.93;;;2.35;;
55224;SDS011;41091;49.400;8.684;2022-11-25T04:41:23;8.15;;;3.00;;
55224;SDS011;41091;49.400;8.684;2022-11-25T04:43:51;3.20;;;2.17;;
55224;SDS011;41091;49.400;8.684;2022-11-25T04:46:20;10.35;;;2.85;;
55224;SDS011;41091;49.400;8.684;2022-11-25T04:48:46;7.03;;;2.42;;
55224;SDS011;41091;49.400;8.684;2022-11-25T04:51:12;8.52;;;2.67;;
55224;SDS011;41091;49.400;8.684;2022-11-25T04:53:37;4.53;;;2.30;;
55224;SDS011;41091;49.400;8.684;2022-11-25T04:56:05;6.10;;;3.03;;
55224;SDS011;41091;49.400;8.684;2022-11-25T04:58:33;3.72;;;2.55;;
55224;SDS011;41091;49.400;8.684;2022-11-25T05:01:17;7.53;;;3.03;;
55224;SDS011;41091;49.400;8.684;2022-11-25T05:03:47;5.50;;;2.78;;
55224;SDS011;41091;49.400;8.684;2022-11-25T05:06:13;2.95;;;2.22;;
55224;SDS011;41091;49.400;8.684;2022-11-25T05:08:41;8.57;;;2.67;;
55224;SDS011;41091;49.400;8.684;2022-11-25T05:11:06;5.38;;;2.47;;
55224;SDS011;41091;49.400;8.684;2022-11-25T05:13:31;7.65;;;2.17;;
55224;SDS011;41091;49.400;8.684;2022-11-25T05:15:57;2.88;;;2.33;;
55224;SDS011;41091;49.400;8.684;2022-11-25T05:18:24;9.48;;;4.45;;
55224;SDS011;41091;49.400;8.684;2022-11-25T05:20:49;4.43;;;3.45;;
55224;SDS011;41091;49.400;8.684;2022-11-25T05:23:14;8.57;;;4.40;;
55224;SDS011;41091;49.400;8.684;2022-11-25T05:25:42;7.03;;;3.72;;
55224;SDS011;41091;49.400;8.684;2022-11-25T05:28:07;7.70;;;2.35;;
55224;SDS011;41091;49.400;8.684;2022-11-25T05:30:32;7.68;;;2.00;;
55224;SDS011;41091;49.400;8.684;2022-11-25T05:33:00;5.15;;;2.22;;
55224;SDS011;41091;49.400;8.684;2022-11-25T05:35:25;7.50;;;2.58;;
55224;SDS011;41091;49.400;8.684;2022-11-25T05:37:55;2.95;;;2.00;;
55224;SDS011;41091;49.400;8.684;2022-11-25T05:40:20;6.38;;;2.70;;
55224;SDS011;41091;49.400;8.684;2022-11-25T05:42:51;5.47;;;2.38;;
55224;SDS011;41091;49.400;8.684;2022-11-25T05:45:16;4.20;;;2.30;;
55224;SDS011;41091;49.400;8.684;2022-11-25T05:47:41;3.35;;;1.85;;
55224;SDS011;41091;49.400;8.684;2022-11-25T05:50:07;10.63;;;2.53;;
55224;SDS011;41091;49.400;8.684;2022-11-25T05:52:32;3.90;;;1.88;;
55224;SDS011;41091;49.400;8.684;2022-11-25T05:54:58;12.85;;;3.05;;
55224;SDS011;41091;49.400;8.684;2022-11-25T05:57:23;6.53;;;2.65;;
55224;SDS011;41091;49.400;8.684;2022-11-25T05:59:48;7.68;;;2.00;;
55224;SDS011;41091;49.400;8.684;2022-11-25T06:02:14;6.35;;;2.72;;
55224;SDS011;41091;49.400;8.684;2022-11-25T06:04:39;4.13;;;2.30;;
55224;SDS011;41091;49.400;8.684;2022-11-25T06:07:09;6.05;;;2.30;;
55224;SDS011;41091;49.400;8.684;2022-11-25T06:09:37;4.20;;;2.45;;
55224;SDS011;41091;49.400;8.684;2022-11-25T06:12:02;5.18;;;2.47;;
55224;SDS011;41091;49.400;8.684;2022-11-25T06:14:28;4.30;;;2.50;;
55224;SDS011;41091;49.400;8.684;2022-11-25T06:16:53;11.13;;;2.92;;
55224;SDS011;41091;49.400;8.684;2022-11-25T06:19:18;8.05;;;2.88;;
55224;SDS011;41091;49.400;8.684;2022-11-25T06:21:48;8.48;;;3.00;;
55224;SDS011;41091;49.400;8.684;2022-11-25T06:24:14;7.63;;;2.65;;
55224;SDS011;41091;49.400;8.684;2022-11-25T06:26:41;4.85;;;3.15;;
55224;SDS011;41091;49.400;8.684;2022-11-25T06:29:09;3.83;;;2.65;;
55224;SDS011;41091;49.400;8.684;2022-11-25T06:31:34;9.20;;;3.60;;
55224;SDS011;41091;49.400;8.684;2022-11-25T06:33:59;7.38;;;2.90;;
55224;SDS011;41091;49.400;8.684;2022-11-25T06:36:30;7.55;;;3.25;;
55224;SDS011;41091;49.400;8.684;2022-11-25T06:38:55;7.40;;;3.78;;
55224;SDS011;41091;49.400;8.684;2022-11-25T06:41:21;7.25;;;2.85;;
55224;SDS011;41091;49.400;8.684;2022-11-25T06:43:46;5.78;;;3.00;;
55224;SDS011;41091;49.400;8.684;2022-11-25T06:46:15;10.93;;;3.08;;
55224;SDS011;41091;49.400;8.684;2022-11-25T06:48:41;7.93;;;2.50;;
55224;SDS011;41091;49.400;8.684;2022-11-25T06:51:09;6.15;;;3.83;;
55224;SDS011;41091;49.400;8.684;2022-11-25T06:53:36;10.02;;;4.15;;
55224;SDS011;41091;49.400;8.684;2022-11-25T06:56:05;8.98;;;2.80;;
55224;SDS011;41091;49.400;8.684;2022-11-25T06:58:31;11.45;;;3.58;;
55224;SDS011;41091;49.400;8.684;2022-11-25T07:01:00;9.43;;;3.40;;
55224;SDS011;41091;49.400;8.684;2022-11-25T07:03:29;10.88;;;4.63;;
55224;SDS011;41091;49.400;8.684;2022-11-25T07:05:56;11.80;;;3.33;;
55224;SDS011;41091;49.400;8.684;2022-11-25T07:08:22;8.93;;;3.15;;
55224;SDS011;41091;49.400;8.684;2022-11-25T07:10:51;8.85;;;3.85;;
55224;SDS011;41091;49.400;8.684;2022-11-25T07:13:19;6.78;;;3.80;;
55224;SDS011;41091;49.400;8.684;2022-11-25T07:15:45;6.80;;;3.13;;
55224;SDS011;41091;49.400;8.684;2022-11-25T07:18:10;12.63;;;3.67;;
55224;SDS011;41091;49.400;8.684;2022-11-25T07:20:36;9.52;;;2.90;;
55224;SDS011;41091;49.400;8.684;2022-11-25T07:23:04;7.25;;;3.17;;
55224;SDS011;41091;49.400;8.684;2022-11-25T07:25:29;5.00;;;2.80;;
55224;SDS011;41091;49.400;8.684;2022-11-25T07:27:56;4.95;;;3.42;;
55224;SDS011;41091;49.400;8.684;2022-11-25T07:30:24;13.55;;;3.17;;
55224;SDS011;41091;49.400;8.684;2022-11-25T07:32:52;9.52;;;3.08;;
55224;SDS011;41091;49.400;8.684;2022-11-25T07:35:19;15.35;;;3.35;;
55224;SDS011;41091;49.400;8.684;2022-11-25T07:37:45;9.00;;;3.00;;
55224;SDS011;41091;49.400;8.684;2022-11-25T07:40:10;13.63;;;2.72;;
55224;SDS011;41091;49.400;8.684;2022-11-25T07:42:36;7.10;;;2.53;;
55224;SDS011;41091;49.400;8.684;2022-11-25T07:45:02;10.18;;;3.00;;
55224;SDS011;41091;49.400;8.684;2022-11-25T07:47:27;5.28;;;2.65;;
55224;SDS011;41091;49.400;8.684;2022-11-25T07:49:52;5.70;;;2.80;;
55224;SDS011;41091;49.400;8.684;2022-11-25T07:52:18;10.32;;;2.78;;
55224;SDS011;41091;49.400;8.684;2022-11-25T07:54:44;5.15;;;2.50;;
55224;SDS011;41091;49.400;8.684;2022-11-25T07:57:12;9.35;;;2.80;;
55224;SDS011;41091;49.400;8.684;2022-11-25T07:59:37;4.85;;;2.50;;
55224;SDS011;41091;49.400;8.684;2022-11-25T08:02:07;7.93;;;2.38;;
55224;SDS011;41091;49.400;8.684;2022-11-25T08:04:35;4.40;;;2.35;;
55224;SDS011;41091;49.400;8.684;2022-11-25T08:07:03;10.35;;;2.03;;
55224;SDS011;41091;49.400;8.684;2022-11-25T08:09:29;6.00;;;2.13;;
55224;SDS011;41091;49.400;8.684;2022-11-25T08:11:54;4.32;;;1.85;;
55224;SDS011;41091;49.400;8.684;2022-11-25T08:14:20;4.88;;;1.73;;
55224;SDS011;41091;49.400;8.684;2022-11-25T08:16:45;7.28;;;2.80;;
55224;SDS011;41091;49.400;8.684;2022-11-25T08:19:15;4.68;;;1.92;;
55224;SDS011;41091;49.400;8.684;2022-11-25T08:24:12;5.25;;;2.80;;
55224;SDS011;41091;49.400;8.684;2022-11-25T08:26:39;5.10;;;2.10;;
55224;SDS011;41091;49.400;8.684;2022-11-25T08:29:05;15.10;;;2.78;;
55224;SDS011;41091;49.400;8.684;2022-11-25T08:31:37;4.35;;;1.95;;
55224;SDS011;41091;49.400;8.684;2022-11-25T08:34:03;6.82;;;2.10;;
55224;SDS011;41091;49.400;8.684;2022-11-25T08:36:32;10.23;;;2.60;;
55224;SDS011;41091;49.400;8.684;2022-11-25T08:38:59;13.13;;;2.17;;
55224;SDS011;41091;49.400;8.684;2022-11-25T08:41:27;3.38;;;2.25;;
55224;SDS011;41091;49.400;8.684;2022-11-25T08:43:55;15.48;;;2.55;;
55224;SDS011;41091;49.400;8.684;2022-11-25T08:46:22;4.20;;;1.80;;
55224;SDS011;41091;49.400;8.684;2022-11-25T08:48:52;2.58;;;1.95;;
55224;SDS011;41091;49.400;8.684;2022-11-25T08:51:19;6.30;;;2.10;;
55224;SDS011;41091;49.400;8.684;2022-11-25T08:53:46;7.80;;;1.98;;
55224;SDS011;41091;49.400;8.684;2022-11-25T08:56:15;2.17;;;1.30;;
55224;SDS011;41091;49.400;8.684;2022-11-25T08:58:41;6.03;;;1.30;;
55224;SDS011;41091;49.400;8.684;2022-11-25T09:01:07;10.55;;;1.65;;
55224;SDS011;41091;49.400;8.684;2022-11-25T09:03:37;6.05;;;1.73;;
55224;SDS011;41091;49.400;8.684;2022-11-25T09:06:04;9.55;;;2.05;;
55224;SDS011;41091;49.400;8.684;2022-11-25T09:08:30;1.90;;;1.73;;
55224;SDS011;41091;49.400;8.684;2022-11-25T09:10:56;4.50;;;1.73;;
55224;SDS011;41091;49.400;8.684;2022-11-25T09:13:22;4.32;;;1.95;;
55224;SDS011;41091;49.400;8.684;2022-11-25T09:15:48;5.22;;;1.50;;
55224;SDS011;41091;49.400;8.684;2022-11-25T09:18:13;8.68;;;2.35;;
55224;SDS011;41091;49.400;8.684;2022-11-25T09:20:39;1.73;;;1.63;;
55224;SDS011;41091;49.400;8.684;2022-11-25T09:23:10;3.53;;;1.75;;
55224;SDS011;41091;49.400;8.684;2022-11-25T09:25:38;5.60;;;2.78;;
55224;SDS011;41091;49.400;8.684;2022-11-25T09:28:03;4.10;;;2.22;;
55224;SDS011;41091;49.400;8.684;2022-11-25T09:30:29;6.63;;;2.60;;
55224;SDS011;41091;49.400;8.684;2022-11-25T09:32:54;2.80;;;1.83;;
55224;SDS011;41091;49.400;8.684;2022-11-25T09:35:23;3.58;;;1.75;;
55224;SDS011;41091;49.400;8.684;2022-11-25T09:37:49;6.22;;;1.70;;
55224;SDS011;41091;49.400;8.684;2022-11-25T09:43:01;8.13;;;2.00;;
55224;SDS011;41091;49.400;8.684;2022-11-25T09:46:18;9.10;;;2.35;;
55224;SDS011;41091;49.400;8.684;2022-11-25T09:57:06;2.47;;;1.35;;
55224;SDS011;41091;49.400;8.684;2022-11-25T10:02:35;6.22;;;1.67;;
55224;SDS011;41091;49.400;8.684;2022-11-25T10:05:15;3.70;;;1.70;;
55224;SDS011;41091;49.400;8.684;2022-11-25T10:07:48;9.77;;;2.38;;
55224;SDS011;41091;49.400;8.684;2022-11-25T10:10:21;4.05;;;1.92;;
55224;SDS011;41091;49.400;8.684;2022-11-25T10:13:11;7.60;;;2.30;;
55224;SDS011;41091;49.400;8.684;2022-11-25T10:15:56;4.85;;;2.53;;
55224;SDS011;41091;49.400;8.684;2022-11-25T10:20:58;6.30;;;2.30;;
55224;SDS011;41091;49.400;8.684;2022-11-25T10:23:29;3.45;;;2.40;;
55224;SDS011;41091;49.400;8.684;2022-11-25T10:26:09;5.68;;;2.67;;
55224;SDS011;41091;49.400;8.684;2022-11-25T10:28:42;9.52;;;2.67;;
55224;SDS011;41091;49.400;8.684;2022-11-25T10:31:20;10.93;;;3.00;;
55224;SDS011;41091;49.400;8.684;2022-11-25T10:34:01;3.85;;;2.72;;
55224;SDS011;41091;49.400;8.684;2022-11-25T10:36:36;10.57;;;2.92;;
55224;SDS011;41091;49.400;8.684;2022-11-25T10:41:55;5.82;;;2.72;;
55224;SDS011;41091;49.400;8.684;2022-11-25T10:44:30;6.47;;;3.33;;
55224;SDS011;41091;49.400;8.684;2022-11-25T10:52:14;6.28;;;3.38;;
55224;SDS011;41091;49.400;8.684;2022-11-25T10:54:54;9.98;;;3.20;;
55224;SDS011;41091;49.400;8.684;2022-11-25T10:57:37;10.00;;;3.53;;
55224;SDS011;41091;49.400;8.684;2022-11-25T11:00:04;4.03;;;3.05;;
55224;SDS011;41091;49.400;8.684;2022-11-25T11:02:50;9.68;;;3.10;;
55224;SDS011;41091;49.400;8.684;2022-11-25T11:05:23;9.98;;;3.08;;
55224;SDS011;41091;49.400;8.684;2022-11-25T11:08:08;7.63;;;3.15;;
55224;SDS011;41091;49.400;8.684;2022-11-25T11:10:38;10.57;;;3.25;;
55224;SDS011;41091;49.400;8.684;2022-11-25T11:13:04;13.20;;;3.28;;
55224;SDS011;41091;49.400;8.684;2022-11-25T11:18:13;11.10;;;3.85;;
55224;SDS011;41091;49.400;8.684;2022-11-25T11:20:57;14.77;;;3.60;;
55224;SDS011;41091;49.400;8.684;2022-11-25T11:23:26;7.88;;;3.17;;
55224;SDS011;41091;49.400;8.684;2022-11-25T11:28:26;12.20;;;3.42;;
55224;SDS011;41091;49.400;8.684;2022-11-25T11:31:01;10.88;;;4.13;;
55224;SDS011;41091;49.400;8.684;2022-11-25T11:33:28;6.28;;;3.15;;
55224;SDS011;41091;49.400;8.684;2022-11-25T11:36:07;6.38;;;3.20;;
55224;SDS011;41091;49.400;8.684;2022-11-25T11:39:22;10.93;;;3.28;;
55224;SDS011;41091;49.400;8.684;2022-11-25T11:44:17;5.82;;;2.65;;
55224;SDS011;41091;49.400;8.684;2022-11-25T11:47:09;6.05;;;2.88;;
55224;SDS011;41091;49.400;8.684;2022-11-25T11:52:51;8.65;;;3.75;;
55224;SDS011;41091;49.400;8.684;2022-11-25T12:03:58;7.40;;;3.15;;
55224;SDS011;41091;49.400;8.684;2022-11-25T12:06:26;10.52;;;3.50;;
55224;SDS011;41091;49.400;8.684;2022-11-25T12:08:59;14.40;;;4.15;;
55224;SDS011;41091;49.400;8.684;2022-11-25T12:11:29;6.82;;;3.67;;
55224;SDS011;41091;49.400;8.684;2022-11-25T12:14:10;5.47;;;3.65;;
55224;SDS011;41091;49.400;8.684;2022-11-25T12:16:40;14.57;;;3.30;;
55224;SDS011;41091;49.400;8.684;2022-11-25T12:19:26;7.75;;;3.88;;
55224;SDS011;41091;49.400;8.684;2022-11-25T12:22:03;7.68;;;3.22;;
55224;SDS011;41091;49.400;8.684;2022-11-25T12:24:43;9.68;;;3.85;;
55224;SDS011;41091;49.400;8.684;2022-11-25T12:27:19;11.48;;;3.15;;
55224;SDS011;41091;49.400;8.684;2022-11-25T12:29:54;10.80;;;4.32;;
55224;SDS011;41091;49.400;8.684;2022-11-25T12:32:45;6.63;;;3.33;;
55224;SDS011;41091;49.400;8.684;2022-11-25T12:35:18;6.32;;;2.95;;
55224;SDS011;41091;49.400;8.684;2022-11-25T12:40:36;13.68;;;4.13;;
55224;SDS011;41091;49.400;8.684;2022-11-25T12:48:57;7.55;;;3.55;;
55224;SDS011;41091;49.400;8.684;2022-11-25T12:52:07;7.07;;;3.70;;
55224;SDS011;41091;49.400;8.684;2022-11-25T12:54:36;11.45;;;3.97;;
55224;SDS011;41091;49.400;8.684;2022-11-25T12:57:36;7.63;;;3.95;;
55224;SDS011;41091;49.400;8.684;2022-11-25T13:16:53;12.50;;;3.85;;
55224;SDS011;41091;49.400;8.684;2022-11-25T13:19:23;8.95;;;3.80;;
55224;SDS011;41091;49.400;8.684;2022-11-25T13:21:59;6.28;;;3.80;;
55224;SDS011;41091;49.400;8.684;2022-11-25T13:24:30;12.80;;;3.88;;
55224;SDS011;41091;49.400;8.684;2022-11-25T13:26:59;9.65;;;3.72;;
55224;SDS011;41091;49.400;8.684;2022-11-25T13:31:55;8.38;;;4.88;;
55224;SDS011;41091;49.400;8.684;2022-11-25T13:34:23;12.27;;;4.22;;
55224;SDS011;41091;49.400;8.684;2022-11-25T13:36:54;3.58;;;3.28;;
55224;SDS011;41091;49.400;8.684;2022-11-25T13:41:48;15.02;;;4.20;;
55224;SDS011;41091;49.400;8.684;2022-11-25T13:44:26;12.30;;;4.22;;
55224;SDS011;41091;49.400;8.684;2022-11-25T13:46:56;8.65;;;3.58;;
55224;SDS011;41091;49.400;8.684;2022-11-25T13:49:31;13.35;;;4.65;;
55224;SDS011;41091;49.400;8.684;2022-11-25T13:54:31;14.40;;;5.50;;
55224;SDS011;41091;49.400;8.684;2022-11-25T13:59:37;17.45;;;7.50;;
55224;SDS011;41091;49.400;8.684;2022-11-25T14:05:02;6.78;;;3.88;;
55224;SDS011;41091;49.400;8.684;2022-11-25T14:08:30;5.72;;;4.20;;
55224;SDS011;41091;49.400;8.684;2022-11-25T14:21:59;6.45;;;3.92;;
55224;SDS011;41091;49.400;8.684;2022-11-25T14:24:40;14.07;;;4.93;;
55224;SDS011;41091;49.400;8.684;2022-11-25T14:27:12;9.85;;;4.00;;
55224;SDS011;41091;49.400;8.684;2022-11-25T14:29:41;7.15;;;4.10;;
55224;SDS011;41091;49.400;8.684;2022-11-25T14:32:14;15.05;;;4.05;;
55224;SDS011;41091;49.400;8.684;2022-11-25T14:35:27;12.73;;;3.75;;
55224;SDS011;41091;49.400;8.684;2022-11-25T14:37:38;11.40;;;3.63;;
55224;SDS011;41091;49.400;8.684;2022-11-25T14:42:45;11.85;;;3.63;;
55224;SDS011;41091;49.400;8.684;2022-11-25T14:45:19;10.50;;;4.03;;
55224;SDS011;41091;49.400;8.684;2022-11-25T14:47:53;7.35;;;3.55;;
55224;SDS011;41091;49.400;8.684;2022-11-25T14:50:18;13.15;;;5.28;;
55224;SDS011;41091;49.400;8.684;2022-11-25T14:52:44;7.93;;;4.00;;
55224;SDS011;41091;49.400;8.684;2022-11-25T14:55:11;9.02;;;3.80;;
55224;SDS011;41091;49.400;8.684;2022-11-25T14:57:41;10.00;;;3.53;;
55224;SDS011;41091;49.400;8.684;2022-11-25T15:00:11;6.47;;;3.40;;
55224;SDS011;41091;49.400;8.684;2022-11-25T15:02:40;8.75;;;4.05;;
55224;SDS011;41091;49.400;8.684;2022-11-25T15:05:25;3.53;;;3.03;;
55224;SDS011;41091;49.400;8.684;2022-11-25T15:08:01;11.80;;;4.18;;
55224;SDS011;41091;49.400;8.684;2022-11-25T15:10:37;17.33;;;3.53;;
55224;SDS011;41091;49.400;8.684;2022-11-25T15:13:08;11.00;;;3.58;;
55224;SDS011;41091;49.400;8.684;2022-11-25T15:15:42;5.53;;;3.35;;
55224;SDS011;41091;49.400;8.684;2022-11-25T15:18:09;9.63;;;3.85;;
55224;SDS011;41091;49.400;8.684;2022-11-25T15:20:42;8.23;;;3.42;;
55224;SDS011;41091;49.400;8.684;2022-11-25T15:23:10;6.75;;;3.53;;
55224;SDS011;41091;49.400;8.684;2022-11-25T15:25:47;6.95;;;2.95;;
55224;SDS011;41091;49.400;8.684;2022-11-25T15:28:14;3.95;;;2.88;;
55224;SDS011;41091;49.400;8.684;2022-11-25T15:30:42;13.48;;;3.40;;
55224;SDS011;41091;49.400;8.684;2022-11-25T15:33:22;8.60;;;3.38;;
55224;SDS011;41091;49.400;8.684;2022-11-25T15:35:48;11.32;;;3.25;;
55224;SDS011;41091;49.400;8.684;2022-11-25T15:38:17;12.90;;;4.40;;
55224;SDS011;41091;49.400;8.684;2022-11-25T15:41:03;9.13;;;3.47;;
55224;SDS011;41091;49.400;8.684;2022-11-25T15:43:30;10.75;;;4.22;;
55224;SDS011;41091;49.400;8.684;2022-11-25T15:46:01;10.95;;;4.72;;
55224;SDS011;41091;49.400;8.684;2022-11-25T15:48:37;5.13;;;3.17;;
55224;SDS011;41091;49.400;8.684;2022-11-25T15:51:11;8.15;;;3.60;;
55224;SDS011;41091;49.400;8.684;2022-11-25T15:56:31;10.90;;;3.85;;
55224;SDS011;41091;49.400;8.684;2022-11-25T15:59:00;9.25;;;4.05;;
55224;SDS011;41091;49.400;8.684;2022-11-25T16:01:26;11.27;;;3.97;;
55224;SDS011;41091;49.400;8.684;2022-11-25T16:03:52;9.40;;;3.63;;
55224;SDS011;41091;49.400;8.684;2022-11-25T16:06:33;12.02;;;4.43;;
55224;SDS011;41091;49.400;8.684;2022-11-25T16:08:59;8.30;;;4.22;;
55224;SDS011;41091;49.400;8.684;2022-11-25T16:11:27;14.07;;;4.35;;
55224;SDS011;41091;49.400;8.684;2022-11-25T16:14:15;14.20;;;6.32;;
55224;SDS011;41091;49.400;8.684;2022-11-25T16:16:57;20.05;;;7.28;;
55224;SDS011;41091;49.400;8.684;2022-11-25T16:19:28;18.20;;;5.60;;
55224;SDS011;41091;49.400;8.684;2022-11-25T16:21:57;13.48;;;5.97;;
55224;SDS011;41091;49.400;8.684;2022-11-25T16:27:23;15.20;;;4.40;;
55224;SDS011;41091;49.400;8.684;2022-11-25T16:29:51;13.20;;;5.25;;
55224;SDS011;41091;49.400;8.684;2022-11-25T16:32:20;14.18;;;4.97;;
55224;SDS011;41091;49.400;8.684;2022-11-25T16:34:55;9.48;;;5.05;;
55224;SDS011;41091;49.400;8.684;2022-11-25T16:37:29;11.77;;;6.07;;
55224;SDS011;41091;49.400;8.684;2022-11-25T16:39:56;11.25;;;4.60;;
55224;SDS011;41091;49.400;8.684;2022-11-25T16:42:22;12.43;;;5.40;;
55224;SDS011;41091;49.400;8.684;2022-11-25T16:44:52;15.63;;;6.35;;
55224;SDS011;41091;49.400;8.684;2022-11-25T16:47:20;8.70;;;4.72;;
55224;SDS011;41091;49.400;8.684;2022-11-25T16:49:46;20.15;;;6.22;;
55224;SDS011;41091;49.400;8.684;2022-11-25T16:52:14;11.82;;;5.00;;
55224;SDS011;41091;49.400;8.684;2022-11-25T16:54:39;18.50;;;5.90;;